createdAt,value
2023-05-19T07:23:03.942Z,101464.53
2023-05-19T07:25:31.101Z,101467.44
2023-05-19T07:27:58.236Z,101461.50
2023-05-19T07:30:26.935Z,101463.09
2023-05-19T07:32:54.033Z,101477.69
2023-05-19T07:35:22.941Z,101476.34
2023-05-19T07:37:50.516Z,101460.59
2023-05-19T07:40:17.980Z,101463.38
2023-05-19T07:42:45.051Z,101472.63
2023-05-19T07:45:12.180Z,101456.13
2023-05-19T07:47:39.390Z,101458.34
2023-05-19T07:50:07.295Z,101455.38
2023-05-19T07:52:34.612Z,101460.91
2023-05-19T07:55:01.650Z,101451.88
2023-05-19T07:57:28.753Z,101466.72
2023-05-19T07:59:56.024Z,101439.06
2023-05-19T08:02:23.163Z,101448.69
2023-05-19T08:04:50.377Z,101460.06
2023-05-19T08:07:17.593Z,101439.78
2023-05-19T08:09:44.622Z,101439.91
2023-05-19T08:12:11.711Z,101454.06
2023-05-19T08:14:38.807Z,101450.63
2023-05-19T08:17:05.911Z,101461.84
2023-05-19T08:19:32.933Z,101447.06
2023-05-19T08:22:01.597Z,101467.97
2023-05-19T08:24:33.032Z,101462.66
2023-05-19T08:27:00.241Z,101464.06
2023-05-19T08:29:27.481Z,101452.19
2023-05-19T08:31:54.691Z,101458.50
2023-05-19T08:34:22.640Z,101442.41
2023-05-19T08:36:49.771Z,101458.88
2023-05-19T08:39:18.744Z,101446.75
2023-05-19T08:41:46.072Z,101449.22
2023-05-19T08:44:13.263Z,101462.97
2023-05-19T08:46:40.612Z,101453.06
2023-05-19T08:49:13.551Z,101441.88
2023-05-19T08:52:10.243Z,101451.53
2023-05-19T08:54:47.251Z,101463.09
2023-05-19T08:57:14.939Z,101448.75
2023-05-19T08:59:44.072Z,101457.22
2023-05-19T09:02:13.615Z,101456.44
2023-05-19T09:04:42.279Z,101448.03
2023-05-19T09:07:09.664Z,101461.09
2023-05-19T09:09:36.909Z,101453.84
2023-05-19T09:12:04.672Z,101462.84
2023-05-19T09:14:33.404Z,101459.56
2023-05-19T09:17:01.765Z,101452.56
2023-05-19T09:19:32.179Z,101462.63
2023-05-19T09:22:05.772Z,101448.16
2023-05-19T09:24:34.601Z,101448.38
2023-05-19T09:27:02.456Z,101449.56
2023-05-19T09:29:29.643Z,101447.44
2023-05-19T09:32:06.521Z,101439.66
2023-05-19T09:34:33.737Z,101454.91
2023-05-19T09:37:00.812Z,101441.97
2023-05-19T09:39:29.073Z,101456.19
2023-05-19T09:41:59.030Z,101449.06
2023-05-19T09:44:30.783Z,101440.44
2023-05-19T09:46:59.109Z,101436.72
2023-05-19T09:49:30.777Z,101435.31
2023-05-19T09:51:59.644Z,101432.78
2023-05-19T09:54:32.425Z,101430.19
2023-05-19T09:57:01.673Z,101440.59
2023-05-19T09:59:32.343Z,101438.25
2023-05-19T10:02:03.052Z,101431.38
2023-05-19T10:04:31.675Z,101437.78
2023-05-19T10:07:00.118Z,101428.81
2023-05-19T10:09:29.176Z,101420.06
2023-05-19T10:11:57.753Z,101429.47
2023-05-19T10:14:29.871Z,101444.50
2023-05-19T10:17:00.283Z,101430.78
2023-05-19T10:19:29.339Z,101431.34
2023-05-19T10:21:57.182Z,101422.28
2023-05-19T10:24:24.334Z,101442.22
2023-05-19T10:27:18.377Z,101438.59
2023-05-19T10:29:50.199Z,101438.59
2023-05-19T10:32:22.530Z,101428.31
2023-05-19T10:35:19.174Z,101429.13
2023-05-19T10:37:59.451Z,101429.72
2023-05-19T10:40:33.774Z,101429.00
2023-05-19T10:43:14.452Z,101433.78
2023-05-19T10:45:54.004Z,101437.38
2023-05-19T10:48:24.238Z,101427.34
2023-05-19T10:50:55.605Z,101437.59
2023-05-19T10:53:23.028Z,101444.56
2023-05-19T10:55:59.422Z,101438.63
2023-05-19T10:58:41.109Z,101424.97
2023-05-19T11:01:14.599Z,101428.22
2023-05-19T11:03:57.777Z,101442.38
2023-05-19T11:06:30.348Z,101437.91
2023-05-19T11:09:01.135Z,101431.69
2023-05-19T11:11:47.666Z,101424.09
2023-05-19T11:14:17.956Z,101424.75
2023-05-19T11:16:48.327Z,101421.03
2023-05-19T11:19:29.470Z,101416.78
2023-05-19T11:21:58.273Z,101404.84
2023-05-19T11:24:36.738Z,101415.16
2023-05-19T11:27:24.711Z,101416.91
2023-05-19T11:29:52.253Z,101400.63
2023-05-19T11:32:22.035Z,101424.84
2023-05-19T11:34:50.575Z,101407.28
2023-05-19T11:37:17.972Z,101420.84
2023-05-19T11:39:46.963Z,101407.63
2023-05-19T11:42:14.488Z,101408.34
2023-05-19T11:44:41.715Z,101410.72
2023-05-19T11:47:09.521Z,101393.75
2023-05-19T11:49:36.887Z,101406.59
2023-05-19T11:52:05.271Z,101396.81
2023-05-19T11:54:36.892Z,101406.34
2023-05-19T11:57:05.426Z,101405.38
2023-05-19T11:59:35.985Z,101415.69
2023-05-19T12:02:27.991Z,101415.00
2023-05-19T12:04:55.392Z,101400.31
2023-05-19T12:07:26.373Z,101404.69
2023-05-19T12:09:55.687Z,101413.09
2023-05-19T12:12:23.459Z,101399.63
2023-05-19T12:14:52.517Z,101394.53
2023-05-19T12:17:21.756Z,101378.84
2023-05-19T12:19:50.557Z,101376.78
2023-05-19T12:22:18.376Z,101385.66
2023-05-19T12:24:46.693Z,101371.22
2023-05-19T12:27:20.594Z,101388.53
2023-05-19T12:29:54.617Z,101384.47
2023-05-19T12:32:26.515Z,101376.00
2023-05-19T12:34:56.676Z,101360.72
2023-05-19T12:37:27.872Z,101380.00
2023-05-19T12:39:56.591Z,101384.31
2023-05-19T12:42:24.490Z,101391.09
2023-05-19T12:44:52.853Z,101387.31
2023-05-19T12:47:20.765Z,101388.31
2023-05-19T12:50:00.461Z,101391.47
2023-05-19T12:52:29.786Z,101380.44
2023-05-19T12:55:01.834Z,101384.94
2023-05-19T12:57:32.753Z,101376.09
2023-05-19T13:00:15.106Z,101388.91
2023-05-19T13:03:02.367Z,101387.06
2023-05-19T13:05:31.127Z,101378.44
2023-05-19T13:08:00.067Z,101384.25
2023-05-19T13:10:28.161Z,101377.00
2023-05-19T13:13:00.498Z,101373.94
2023-05-19T13:15:32.069Z,101358.19
2023-05-19T13:18:01.310Z,101366.69
2023-05-19T13:20:28.779Z,101350.66
2023-05-19T13:22:56.469Z,101362.41
2023-05-19T13:25:23.514Z,101359.38
2023-05-19T13:27:51.294Z,101352.50
2023-05-19T13:30:19.163Z,101357.41
2023-05-19T13:32:46.604Z,101356.13
2023-05-19T13:35:15.245Z,101343.03
2023-05-19T13:37:42.891Z,101363.69
2023-05-19T13:40:10.979Z,101348.34
2023-05-19T13:42:38.345Z,101354.00
2023-05-19T13:45:05.895Z,101349.59
2023-05-19T13:47:33.079Z,101353.31
2023-05-19T13:50:00.208Z,101337.38
2023-05-19T13:52:29.066Z,101324.31
2023-05-19T13:54:57.948Z,101341.59
2023-05-19T13:57:28.278Z,101336.69
2023-05-19T14:00:02.549Z,101320.16
2023-05-19T14:02:30.479Z,101330.88
2023-05-19T14:04:57.985Z,101311.72
2023-05-19T14:07:25.911Z,101310.81
2023-05-19T14:09:53.197Z,101314.00
2023-05-19T14:12:23.356Z,101324.53
2023-05-19T14:14:55.102Z,101299.44
2023-05-19T14:17:22.225Z,101308.22
2023-05-19T14:19:49.365Z,101301.78
2023-05-19T14:22:16.608Z,101308.59
2023-05-19T14:24:43.679Z,101308.38
2023-05-19T14:27:10.841Z,101308.34
2023-05-19T14:29:38.288Z,101330.88
2023-05-19T14:32:06.191Z,101319.13
2023-05-19T14:34:33.342Z,101319.03
2023-05-19T14:37:00.521Z,101303.66
2023-05-19T14:39:27.623Z,101312.44
2023-05-19T14:41:54.697Z,101304.31
2023-05-19T14:44:21.868Z,101328.25
2023-05-19T14:46:48.918Z,101313.44
2023-05-19T14:49:15.996Z,101330.69
2023-05-19T14:51:43.117Z,101323.69
2023-05-19T14:54:10.179Z,101322.13
2023-05-19T14:56:37.364Z,101331.78
2023-05-19T14:59:04.831Z,101328.00
2023-05-19T15:01:32.003Z,101328.88
2023-05-19T15:03:59.093Z,101327.28
2023-05-19T15:06:26.326Z,101348.53
2023-05-19T15:08:53.424Z,101378.63
2023-05-19T15:11:21.040Z,101409.09
2023-05-19T15:13:48.329Z,101412.13
2023-05-19T15:16:16.898Z,101416.78
2023-05-19T15:18:45.429Z,101435.22
2023-05-19T15:21:12.789Z,101421.09
2023-05-19T15:23:39.855Z,101399.88
2023-05-19T15:26:07.454Z,101372.41
2023-05-19T15:28:34.680Z,101377.47
2023-05-19T15:31:01.741Z,101376.94
2023-05-19T15:33:28.892Z,101378.34
2023-05-19T15:35:57.546Z,101375.53
2023-05-19T15:38:24.638Z,101383.13
2023-05-19T15:40:51.738Z,101372.03
2023-05-19T15:43:20.251Z,101366.94
2023-05-19T15:45:48.280Z,101366.47
2023-05-19T15:48:15.338Z,101370.13
2023-05-19T15:50:42.524Z,101377.63
2023-05-19T15:53:10.849Z,101367.00
2023-05-19T15:55:37.877Z,101373.38
2023-05-19T15:58:05.021Z,101357.63
2023-05-19T16:00:32.155Z,101374.66
2023-05-19T16:02:59.601Z,101369.56
2023-05-19T16:05:26.969Z,101360.03
2023-05-19T16:07:54.069Z,101352.34
2023-05-19T16:10:21.079Z,101356.59
2023-05-19T16:12:48.174Z,101359.72
2023-05-19T16:15:15.214Z,101362.66
2023-05-19T16:17:42.438Z,101350.06
2023-05-19T16:20:10.228Z,101360.00
2023-05-19T16:22:37.317Z,101342.81
2023-05-19T16:25:04.874Z,101341.47
2023-05-19T16:27:32.247Z,101351.78
2023-05-19T16:30:01.323Z,101325.59
2023-05-19T16:32:28.564Z,101322.13
2023-05-19T16:34:55.740Z,101337.63
2023-05-19T16:37:22.740Z,101346.63
2023-05-19T16:39:49.787Z,101339.06
2023-05-19T16:42:16.909Z,101331.69
2023-05-19T16:44:44.022Z,101326.13
2023-05-19T16:47:11.060Z,101332.47
2023-05-19T16:49:40.791Z,101332.28
2023-05-19T16:52:08.321Z,101320.50
2023-05-19T16:54:35.524Z,101330.44
2023-05-19T16:57:03.165Z,101324.56
2023-05-19T16:59:30.278Z,101325.75
2023-05-19T17:01:57.428Z,101348.94
2023-05-19T17:04:24.689Z,101331.09
2023-05-19T17:06:51.731Z,101351.88
2023-05-19T17:09:25.303Z,101354.09
2023-05-19T17:11:53.769Z,101353.78
2023-05-19T17:14:21.828Z,101329.06
2023-05-19T17:16:49.185Z,101343.63
2023-05-19T17:19:16.554Z,101328.38
2023-05-19T17:21:43.604Z,101325.13
2023-05-19T17:24:10.840Z,101333.97
2023-05-19T17:26:37.935Z,101328.75
2023-05-19T17:29:06.016Z,101337.22
2023-05-19T17:31:33.194Z,101340.72
2023-05-19T17:34:00.401Z,101328.94
2023-05-19T17:36:27.503Z,101346.44
2023-05-19T17:38:54.675Z,101354.94
2023-05-19T17:41:22.145Z,101334.66
2023-05-19T17:43:49.253Z,101353.28
2023-05-19T17:46:16.675Z,101352.63
2023-05-19T17:48:44.137Z,101348.38
2023-05-19T17:51:12.268Z,101350.22
2023-05-19T17:53:39.704Z,101343.50
2023-05-19T17:56:09.083Z,101347.44
2023-05-19T17:58:36.593Z,101353.84
2023-05-19T18:01:03.936Z,101351.88
2023-05-19T18:03:31.664Z,101355.59
2023-05-19T18:05:59.477Z,101362.69
2023-05-19T18:08:28.185Z,101357.44
2023-05-19T18:10:57.460Z,101368.06
2023-05-19T18:13:24.510Z,101352.06
2023-05-19T18:15:53.075Z,101351.72
2023-05-19T18:18:20.226Z,101347.97
2023-05-19T18:20:47.933Z,101350.69
2023-05-19T18:23:15.064Z,101366.28
2023-05-19T18:25:48.611Z,101369.09
2023-05-19T18:28:15.689Z,101376.28
2023-05-19T18:30:44.007Z,101353.91
2023-05-19T18:33:11.158Z,101357.53
2023-05-19T18:35:38.358Z,101359.13
2023-05-19T18:38:05.391Z,101359.00
2023-05-19T18:40:32.755Z,101380.91
2023-05-19T18:43:00.279Z,101370.63
2023-05-19T18:45:27.355Z,101388.94
2023-05-19T18:47:54.419Z,101374.91
2023-05-19T18:50:21.927Z,101379.47
2023-05-19T18:52:49.034Z,101374.44
2023-05-19T18:55:16.391Z,101385.75
2023-05-19T18:57:43.520Z,101389.00
2023-05-19T19:00:11.209Z,101385.41
2023-05-19T19:02:38.292Z,101378.03
2023-05-19T19:05:09.677Z,101381.16
2023-05-19T19:07:44.568Z,101388.53
2023-05-19T19:10:11.985Z,101392.47
2023-05-19T19:12:39.340Z,101389.69
2023-05-19T19:15:06.978Z,101384.66
2023-05-19T19:17:34.191Z,101376.78
2023-05-19T19:20:01.428Z,101366.16
2023-05-19T19:22:28.600Z,101383.22
2023-05-19T19:24:55.737Z,101364.16
2023-05-19T19:27:24.931Z,101375.84
2023-05-19T19:29:52.238Z,101369.28
2023-05-19T19:32:19.426Z,101376.16
2023-05-19T19:34:46.443Z,101386.47
2023-05-19T19:37:14.701Z,101386.47
2023-05-19T19:39:41.835Z,101375.22
2023-05-19T19:42:08.898Z,101376.19
2023-05-19T19:44:36.012Z,101389.16
2023-05-19T19:47:06.472Z,101386.47
2023-05-19T19:49:34.192Z,101396.31
2023-05-19T19:52:01.448Z,101395.84
2023-05-19T19:54:28.625Z,101398.28
2023-05-19T19:56:55.890Z,101404.03
2023-05-19T19:59:26.539Z,101393.41
2023-05-19T20:01:54.131Z,101393.72
2023-05-19T20:04:21.489Z,101381.13
2023-05-19T20:06:49.825Z,101399.09
2023-05-19T20:09:16.954Z,101389.25
2023-05-19T20:11:44.165Z,101406.81
2023-05-19T20:14:11.452Z,101403.53
2023-05-19T20:16:38.690Z,101388.78
2023-05-19T20:19:06.978Z,101398.16
2023-05-19T20:21:36.250Z,101406.47
2023-05-19T20:24:03.337Z,101400.13
2023-05-19T20:26:30.576Z,101393.22
2023-05-19T20:28:57.608Z,101414.03
2023-05-19T20:31:26.156Z,101398.00
2023-05-19T20:33:53.406Z,101400.59
2023-05-19T20:36:20.492Z,101397.34
2023-05-19T20:38:48.231Z,101394.03
2023-05-19T20:41:15.580Z,101401.41
2023-05-19T20:43:42.814Z,101394.69
2023-05-19T20:46:10.190Z,101407.28
2023-05-19T20:48:37.284Z,101405.66
2023-05-19T20:51:04.432Z,101392.75
2023-05-19T20:53:31.562Z,101393.22
2023-05-19T20:55:58.696Z,101403.22
2023-05-19T20:58:30.420Z,101396.66
2023-05-19T21:00:58.239Z,101405.19
2023-05-19T21:03:27.370Z,101408.16
2023-05-19T21:05:55.437Z,101416.00
2023-05-19T21:08:23.131Z,101393.88
2023-05-19T21:10:50.285Z,101395.72
2023-05-19T21:13:18.550Z,101399.31
2023-05-19T21:15:45.731Z,101400.81
2023-05-19T21:18:13.190Z,101385.56
2023-05-19T21:20:40.736Z,101413.56
2023-05-19T21:23:07.838Z,101382.63
2023-05-19T21:25:34.849Z,101388.69
2023-05-19T21:28:01.911Z,101403.41
2023-05-19T21:30:29.113Z,101403.41
2023-05-19T21:32:56.245Z,101396.72
2023-05-19T21:35:23.376Z,101405.38
2023-05-19T21:37:50.600Z,101396.66
